Time;durP1;ratioP1;P1;durP2;ratioP2;P2;SDS_P1;SDS_P2;PMS_P1;PMS_P2;Temp;Humidity;BMP_temperature;BMP_pressure;BME280_temperature;BME280_humidity;BME280_pressure;Samples;Min_cycle;Max_cycle;Signal;HPM_P1;HPM_P2
2022/12/10 00:03:14;;;;;;;12.55;6.47;;;3.60;99.90;;;;;;10120951;28;20032;-60
2022/12/10 00:08:04;;;;;;;12.73;6.68;;;3.50;99.90;;;;;;10116318;28;20028;-63
2022/12/10 00:12:55;;;;;;;14.43;6.57;;;3.50;99.90;;;;;;10111201;28;20040;-61
2022/12/10 00:17:45;;;;;;;14.00;5.80;;;3.50;99.90;;;;;;10117020;28;20184;-60
2022/12/10 00:22:36;;;;;;;14.75;6.68;;;3.60;99.90;;;;;;10128565;28;20091;-64
2022/12/10 00:27:27;;;;;;;17.42;7.38;;;3.60;99.90;;;;;;10121772;28;20025;-61
2022/12/10 00:32:17;;;;;;;20.70;7.70;;;3.50;99.90;;;;;;10123207;28;20487;-60
2022/12/10 00:37:08;;;;;;;16.38;6.95;;;3.60;99.90;;;;;;10098953;28;20021;-60
2022/12/10 00:41:59;;;;;;;13.30;7.03;;;3.50;99.90;;;;;;10103913;28;20442;-63
2022/12/10 00:46:49;;;;;;;15.77;7.07;;;3.50;99.90;;;;;;10129850;28;20029;-59
2022/12/10 00:51:40;;;;;;;14.93;7.90;;;3.60;99.90;;;;;;10131216;28;20048;-60
2022/12/10 00:56:33;;;;;;;11.73;6.15;;;3.40;99.90;;;;;;10131022;28;20048;-65
2022/12/10 01:01:31;;;;;;;14.30;6.50;;;3.30;99.90;;;;;;10147767;28;20104;-63
2022/12/10 01:06:25;;;;;;;16.02;6.85;;;3.40;99.90;;;;;;10116503;28;20017;-60
2022/12/10 01:11:18;;;;;;;14.20;6.07;;;3.40;99.90;;;;;;10107181;28;20410;-61
2022/12/10 01:16:10;;;;;;;10.55;5.63;;;3.40;99.90;;;;;;10111431;28;20074;-59
2022/12/10 01:21:06;;;;;;;17.23;7.38;;;3.40;99.90;;;;;;10140821;28;20395;-66
2022/12/10 01:25:58;;;;;;;;;;;3.30;99.90;;;;;;10129940;28;20021;-66
2022/12/10 01:30:49;;;;;;;12.18;6.22;;;3.40;99.90;;;;;;10125630;28;19912;-61
2022/12/10 01:35:40;;;;;;;9.52;5.63;;;3.30;99.90;;;;;;10121781;28;20037;-60
2022/12/10 01:40:30;;;;;;;14.15;6.70;;;3.20;99.90;;;;;;10110494;28;20479;-60
2022/12/10 01:45:21;;;;;;;12.77;6.85;;;3.30;99.90;;;;;;10128785;28;20111;-66
2022/12/10 01:50:12;;;;;;;11.63;6.00;;;3.30;99.90;;;;;;10135690;28;20530;-63
2022/12/10 01:55:06;;;;;;;18.15;7.43;;;3.30;99.90;;;;;;10124835;28;20128;-63
2022/12/10 02:00:01;;;;;;;12.20;6.70;;;3.30;99.90;;;;;;10123886;28;20021;-60
2022/12/10 02:05:09;;;;;;;13.43;6.43;;;3.30;99.90;;;;;;10107438;28;20395;-62
2022/12/10 02:10:21;;;;;;;16.25;6.82;;;3.40;99.90;;;;;;10120258;28;20499;-59
2022/12/10 02:15:20;;;;;;;15.85;6.82;;;3.40;99.90;;;;;;10111857;28;20017;-59
2022/12/10 02:20:15;;;;;;;18.17;5.90;;;3.40;99.90;;;;;;10135629;28;20028;-59
2022/12/10 02:25:08;;;;;;;16.05;7.32;;;3.40;99.90;;;;;;10131176;28;20023;-60
2022/12/10 02:30:00;;;;;;;14.05;6.32;;;3.30;99.90;;;;;;10112767;28;20031;-59
2022/12/10 02:34:55;;;;;;;12.95;5.82;;;3.40;99.90;;;;;;10125849;28;20071;-60
2022/12/10 02:39:49;;;;;;;14.52;7.03;;;3.40;99.90;;;;;;10116286;28;20118;-60
2022/12/10 02:44:42;;;;;;;14.00;6.45;;;3.40;99.90;;;;;;10119043;28;20021;-60
2022/12/10 02:49:34;;;;;;;15.63;6.88;;;3.40;99.90;;;;;;10134256;28;20479;-65
2022/12/10 02:54:41;;;;;;;12.25;6.25;;;3.40;99.90;;;;;;10139163;28;20037;-63
2022/12/10 02:59:42;;;;;;;;;;;3.30;99.90;;;;;;10123172;28;20037;-59
2022/12/10 03:05:06;;;;;;;10.00;5.18;;;3.30;99.90;;;;;;10107243;28;19935;-62
2022/12/10 03:10:07;;;;;;;13.27;5.93;;;3.40;99.90;;;;;;10101375;28;20033;-66
2022/12/10 03:15:04;;;;;;;10.98;5.32;;;3.40;99.90;;;;;;10110318;28;20030;-66
2022/12/10 03:19:57;;;;;;;17.35;6.93;;;3.40;99.90;;;;;;10130829;28;20228;-66
2022/12/10 03:24:48;;;;;;;15.25;6.68;;;3.30;99.90;;;;;;10113123;28;20387;-60
2022/12/10 03:29:47;;;;;;;11.32;6.07;;;3.30;99.90;;;;;;10118281;28;20079;-62
2022/12/10 03:34:38;;;;;;;10.30;5.28;;;3.30;99.90;;;;;;10133011;28;20036;-58
2022/12/10 03:39:29;;;;;;;15.65;7.43;;;3.40;99.90;;;;;;10104731;28;20025;-60
2022/12/10 03:44:30;;;;;;;11.50;5.45;;;3.40;99.90;;;;;;10121756;28;20040;-60
2022/12/10 03:49:21;;;;;;;15.15;6.22;;;3.40;99.90;;;;;;10128221;28;20619;-61
2022/12/10 03:54:12;;;;;;;13.30;6.15;;;3.30;99.90;;;;;;10121559;28;20285;-59
2022/12/10 03:59:02;;;;;;;12.90;7.07;;;3.30;99.90;;;;;;10123902;28;20149;-58
2022/12/10 04:03:53;;;;;;;16.63;7.38;;;3.30;99.90;;;;;;10128157;28;20036;-59
2022/12/10 04:08:45;;;;;;;12.15;7.00;;;3.20;99.90;;;;;;10116150;28;20024;-59
2022/12/10 04:18:46;;;;;;;12.73;6.40;;;3.20;99.90;;;;;;10132176;28;20447;-60
2022/12/10 04:28:45;;;;;;;17.77;7.85;;;3.30;99.90;;;;;;10129860;28;20130;-58
2022/12/10 04:33:36;;;;;;;14.57;7.22;;;3.20;99.90;;;;;;10132200;28;20442;-59
2022/12/10 04:38:26;;;;;;;14.10;6.63;;;3.20;99.90;;;;;;10100583;28;20029;-59
2022/12/10 04:43:17;;;;;;;16.23;6.85;;;3.30;99.90;;;;;;10106432;28;20375;-60
2022/12/10 04:48:08;;;;;;;16.73;6.53;;;3.20;99.90;;;;;;10113460;28;20032;-60
2022/12/10 04:52:58;;;;;;;18.05;7.88;;;3.10;99.90;;;;;;10123791;28;20119;-59
2022/12/10 04:57:49;;;;;;;18.13;7.53;;;3.10;99.90;;;;;;10120914;28;20048;-64
2022/12/10 05:02:39;;;;;;;13.43;5.80;;;3.10;99.90;;;;;;10121855;28;20032;-60
2022/12/10 05:07:30;;;;;;;15.30;6.40;;;3.10;99.90;;;;;;10107543;28;20506;-60
2022/12/10 05:12:20;;;;;;;12.98;5.72;;;3.20;99.90;;;;;;10123063;28;20052;-60
2022/12/10 05:17:11;;;;;;;16.48;8.35;;;3.10;99.90;;;;;;10102235;28;20506;-60
2022/12/10 05:27:11;;;;;;;21.00;7.45;;;3.40;99.90;;;;;;10125563;28;20083;-59
2022/12/10 05:32:04;;;;;;;18.45;6.30;;;3.40;99.90;;;;;;10142093;28;20392;-59
2022/12/10 05:36:54;;;;;;;15.23;6.60;;;3.40;99.90;;;;;;10126166;28;20375;-61
2022/12/10 05:41:45;;;;;;;17.35;7.45;;;3.30;99.90;;;;;;10117998;28;20031;-59
2022/12/10 05:46:36;;;;;;;14.90;6.72;;;3.10;99.90;;;;;;10124932;28;20063;-60
2022/12/10 05:51:30;;;;;;;16.10;6.35;;;3.20;99.90;;;;;;10124304;28;20048;-61
2022/12/10 05:56:23;;;;;;;12.95;5.75;;;3.20;99.90;;;;;;10129623;28;20114;-59
2022/12/10 06:01:20;;;;;;;13.63;6.00;;;3.20;99.90;;;;;;10114034;28;20079;-59
2022/12/10 06:06:12;;;;;;;17.00;7.07;;;3.10;99.90;;;;;;10135785;28;20063;-61
2022/12/10 06:11:04;;;;;;;16.77;7.40;;;3.10;99.90;;;;;;10128610;28;20045;-59
2022/12/10 06:15:55;;;;;;;17.50;6.85;;;3.00;99.90;;;;;;10117708;28;20112;-59
2022/12/10 06:20:45;;;;;;;15.52;6.93;;;3.00;99.90;;;;;;10138874;28;20119;-59
2022/12/10 06:25:38;;;;;;;16.88;7.07;;;3.00;99.90;;;;;;10133043;28;20033;-60
2022/12/10 06:30:29;;;;;;;15.20;6.65;;;3.00;99.90;;;;;;10124766;28;20036;-60
2022/12/10 06:35:20;;;;;;;16.67;6.90;;;3.00;99.90;;;;;;10128405;28;20024;-60
2022/12/10 06:40:11;;;;;;;20.10;8.93;;;3.00;99.90;;;;;;10104266;28;20028;-59
2022/12/10 06:45:01;;;;;;;15.43;6.15;;;3.00;99.90;;;;;;10119912;28;20085;-60
2022/12/10 06:49:52;;;;;;;16.13;7.18;;;3.00;99.90;;;;;;10132846;28;20041;-61
2022/12/10 06:54:43;;;;;;;14.98;6.93;;;2.90;99.90;;;;;;10129877;28;20233;-59
2022/12/10 06:59:33;;;;;;;16.73;7.05;;;2.80;99.90;;;;;;10123677;28;20032;-59
2022/12/10 07:04:24;;;;;;;16.38;8.32;;;2.90;99.90;;;;;;10122155;28;20528;-59
2022/12/10 07:09:15;;;;;;;17.27;6.82;;;3.00;99.90;;;;;;10115902;28;20024;-59
2022/12/10 07:14:07;;;;;;;13.75;6.10;;;3.00;99.90;;;;;;10109666;28;20028;-60
2022/12/10 07:18:59;;;;;;;13.38;6.28;;;3.10;99.90;;;;;;10111646;28;20021;-61
2022/12/10 07:23:53;;;;;;;12.65;5.95;;;3.00;99.90;;;;;;10132906;28;20111;-67
2022/12/10 07:28:43;;;;;;;11.35;5.72;;;3.00;99.90;;;;;;10130042;28;20514;-64
2022/12/10 07:33:35;;;;;;;20.50;8.10;;;3.00;99.90;;;;;;10126954;28;20105;-66
2022/12/10 07:38:26;;;;;;;16.90;7.70;;;2.90;99.90;;;;;;10105335;28;20491;-60
2022/12/10 07:43:17;;;;;;;12.57;6.38;;;2.90;99.90;;;;;;10111284;28;20031;-59
2022/12/10 07:48:08;;;;;;;14.07;6.97;;;2.90;99.90;;;;;;10130082;28;20032;-60
2022/12/10 07:52:59;;;;;;;12.68;6.63;;;3.00;99.90;;;;;;10124085;28;20542;-58
2022/12/10 07:57:52;;;;;;;14.82;6.55;;;2.90;99.90;;;;;;10117795;28;20554;-60
2022/12/10 08:02:42;;;;;;;16.20;6.45;;;2.80;99.90;;;;;;10124247;28;20020;-60
2022/12/10 08:07:34;;;;;;;16.15;6.22;;;2.90;99.90;;;;;;10125527;28;20502;-59
2022/12/10 08:12:24;;;;;;;12.52;6.38;;;2.80;99.90;;;;;;10121258;28;20060;-65
2022/12/10 08:17:15;;;;;;;10.80;4.95;;;2.70;99.90;;;;;;10113767;28;20036;-59
2022/12/10 08:22:06;;;;;;;12.68;6.60;;;2.90;99.90;;;;;;10144381;28;20150;-59
2022/12/10 08:26:56;;;;;;;19.50;8.40;;;2.90;99.90;;;;;;10132737;28;20025;-59
2022/12/10 08:31:47;;;;;;;13.45;6.38;;;3.00;99.90;;;;;;10123276;28;20028;-59
2022/12/10 08:36:37;;;;;;;10.95;5.55;;;2.80;99.90;;;;;;10112269;28;20021;-60
2022/12/10 08:41:28;;;;;;;19.27;6.53;;;2.90;99.90;;;;;;10102138;28;20029;-61
2022/12/10 08:46:19;;;;;;;12.95;5.63;;;2.90;99.90;;;;;;10148296;28;20017;-60
2022/12/10 08:51:13;;;;;;;13.18;6.93;;;2.80;99.90;;;;;;10126567;28;20036;-61
2022/12/10 08:56:03;;;;;;;12.82;6.15;;;2.80;99.90;;;;;;10126002;28;20040;-61
2022/12/10 09:00:55;;;;;;;18.33;6.50;;;2.80;99.90;;;;;;10126960;28;20433;-59
2022/12/10 09:05:46;;;;;;;17.60;7.30;;;2.80;99.90;;;;;;10131439;28;20037;-57
2022/12/10 09:10:38;;;;;;;17.27;6.10;;;2.80;99.90;;;;;;10122161;28;20126;-55
2022/12/10 09:15:29;;;;;;;16.38;7.03;;;2.70;99.90;;;;;;10112227;28;20028;-58
2022/12/10 09:20:20;;;;;;;14.02;6.47;;;2.90;99.90;;;;;;10129843;28;20029;-59
2022/12/10 09:25:10;;;;;;;15.20;5.97;;;2.80;99.90;;;;;;10144490;28;20033;-58
2022/12/10 09:30:01;;;;;;;16.17;8.18;;;2.80;99.90;;;;;;10119763;28;20024;-56
2022/12/10 09:34:53;;;;;;;13.27;6.50;;;2.80;99.90;;;;;;10124849;28;20510;-58
2022/12/10 09:39:43;;;;;;;23.75;9.93;;;2.90;99.90;;;;;;10109697;28;20029;-60
2022/12/10 09:44:34;;;;;;;14.05;6.10;;;2.80;99.90;;;;;;10122835;28;20032;-58
2022/12/10 09:49:34;;;;;;;16.38;6.70;;;2.80;99.90;;;;;;10132954;28;20491;-60
2022/12/10 09:54:41;;;;;;;12.77;5.63;;;2.70;99.90;;;;;;10130298;28;20415;-61
2022/12/10 09:59:36;;;;;;;11.02;5.40;;;2.70;99.90;;;;;;10123288;28;20028;-73
2022/12/10 10:04:27;;;;;;;13.32;6.30;;;2.70;99.90;;;;;;10128295;28;20087;-59
2022/12/10 10:09:19;;;;;;;9.75;5.07;;;2.80;99.90;;;;;;10133077;28;20510;-60
2022/12/10 10:14:27;;;;;;;13.13;6.63;;;2.80;99.90;;;;;;10113487;28;20146;-56
2022/12/10 10:19:34;;;;;;;19.52;8.18;;;2.80;99.90;;;;;;10115984;28;20029;-58
2022/12/10 10:24:33;;;;;;;14.48;5.18;;;2.70;99.90;;;;;;10128226;28;20100;-58
2022/12/10 10:29:26;;;;;;;14.98;7.05;;;2.70;99.90;;;;;;10123595;28;20028;-59
2022/12/10 10:34:22;;;;;;;12.90;6.72;;;2.80;99.90;;;;;;10135665;28;20058;-60
2022/12/10 10:39:15;;;;;;;17.77;7.18;;;2.80;99.90;;;;;;10111477;28;20025;-54
2022/12/10 10:44:16;;;;;;;15.57;6.70;;;2.80;99.90;;;;;;10109273;28;20026;-58
2022/12/10 10:49:21;;;;;;;14.05;4.80;;;2.80;99.90;;;;;;10119515;28;20017;-56
2022/12/10 10:54:18;;;;;;;11.52;6.13;;;2.80;99.90;;;;;;10128581;28;20691;-58
2022/12/10 10:59:17;;;;;;;12.63;5.88;;;2.80;99.90;;;;;;10121432;28;20025;-59
2022/12/10 11:04:07;;;;;;;14.38;6.95;;;2.80;99.90;;;;;;10124018;28;20147;-58
2022/12/10 11:08:58;;;;;;;13.52;5.70;;;3.00;99.90;;;;;;10113147;28;20027;-61
2022/12/10 11:13:49;;;;;;;12.60;5.63;;;3.00;99.90;;;;;;10115216;28;20453;-57
2022/12/10 11:18:42;;;;;;;18.25;8.70;;;3.00;99.90;;;;;;10098195;28;20101;-57
2022/12/10 11:23:39;;;;;;;16.27;8.82;;;3.10;99.90;;;;;;10133177;28;20040;-57
2022/12/10 11:28:57;;;;;;;14.90;6.13;;;3.10;99.90;;;;;;10127661;28;20008;-57
2022/12/10 11:34:12;;;;;;;16.88;7.45;;;3.20;99.90;;;;;;10125297;28;20059;-58
2022/12/10 11:39:29;;;;;;;13.63;6.60;;;3.00;99.90;;;;;;10134520;28;20039;-56
2022/12/10 11:44:36;;;;;;;11.52;6.68;;;3.20;99.90;;;;;;10091507;28;20514;-56
2022/12/10 11:49:48;;;;;;;12.70;6.10;;;3.20;99.90;;;;;;10139240;28;20028;-65
2022/12/10 11:54:56;;;;;;;15.50;7.43;;;3.10;99.90;;;;;;10136080;28;20055;-62
2022/12/10 12:00:28;;;;;;;14.80;6.22;;;3.10;99.90;;;;;;10137900;28;20119;-76
2022/12/10 12:05:37;;;;;;;13.57;6.50;;;3.20;99.90;;;;;;10015923;28;20036;-69
2022/12/10 12:10:50;;;;;;;13.30;6.25;;;3.10;99.90;;;;;;10137986;28;20043;-59
2022/12/10 12:15:50;;;;;;;11.68;5.43;;;3.10;99.90;;;;;;10131658;28;20025;-72
2022/12/10 12:20:53;;;;;;;18.10;5.85;;;3.10;99.90;;;;;;10126946;28;20100;-73
2022/12/10 12:25:51;;;;;;;12.75;5.10;;;3.10;99.90;;;;;;10139614;28;20017;-74
2022/12/10 12:30:45;;;;;;;14.90;6.05;;;3.10;99.90;;;;;;10137397;28;20159;-74
2022/12/10 12:35:39;;;;;;;15.45;6.07;;;3.20;99.90;;;;;;10110380;28;20027;-69
2022/12/10 12:40:35;;;;;;;12.57;5.68;;;3.10;99.90;;;;;;10119047;28;20272;-63
2022/12/10 12:45:34;;;;;;;12.68;6.07;;;3.20;99.90;;;;;;10136320;28;20483;-59
2022/12/10 12:50:44;;;;;;;14.38;5.80;;;3.20;99.90;;;;;;10125589;28;20032;-61
2022/12/10 12:56:02;;;;;;;12.73;6.35;;;3.30;99.90;;;;;;10140936;28;20037;-75
2022/12/10 13:00:58;;;;;;;12.70;6.40;;;3.20;99.90;;;;;;10135199;28;20085;-70
2022/12/10 13:05:50;;;;;;;17.55;7.55;;;3.30;99.90;;;;;;10135484;28;20021;-73
2022/12/10 13:10:44;;;;;;;15.27;7.25;;;3.30;99.90;;;;;;10135299;28;20037;-67
2022/12/10 13:15:38;;;;;;;19.65;7.82;;;3.40;99.90;;;;;;10133296;28;20047;-58
2022/12/10 13:21:13;;;;;;;13.02;7.05;;;3.40;99.90;;;;;;10126942;28;20392;-68
2022/12/10 13:26:21;;;;;;;11.32;6.38;;;3.50;99.90;;;;;;10113324;28;20032;-55
2022/12/10 13:31:15;;;;;;;15.73;7.95;;;3.40;99.90;;;;;;10124651;28;20067;-60
2022/12/10 13:36:05;;;;;;;17.55;8.18;;;3.40;99.90;;;;;;10125111;28;20475;-78
2022/12/10 13:46:24;;;;;;;12.38;6.43;;;3.50;99.90;;;;;;10118714;28;20032;-56
2022/12/10 13:51:44;;;;;;;14.93;6.93;;;3.50;99.90;;;;;;10123143;28;20038;-60
2022/12/10 13:56:58;;;;;;;14.82;7.03;;;3.50;99.90;;;;;;10129109;28;20573;-59
2022/12/10 14:02:07;;;;;;;13.32;6.65;;;3.50;99.90;;;;;;10128102;28;20539;-56
2022/12/10 14:06:59;;;;;;;14.95;6.40;;;3.50;99.90;;;;;;10122328;28;20079;-63
2022/12/10 14:12:04;;;;;;;18.15;9.52;;;3.50;99.90;;;;;;10109983;28;20043;-57
2022/12/10 14:16:55;;;;;;;20.42;9.20;;;3.40;99.90;;;;;;10130649;28;20030;-68
2022/12/10 14:21:47;;;;;;;13.77;7.18;;;3.40;99.90;;;;;;10106608;28;20025;-57
2022/12/10 14:26:37;;;;;;;19.00;8.82;;;3.40;99.90;;;;;;10133501;28;20048;-58
2022/12/10 14:31:35;;;;;;;17.75;8.40;;;3.30;99.90;;;;;;10137992;28;20410;-56
2022/12/10 14:36:33;;;;;;;15.63;8.20;;;3.30;99.90;;;;;;10109760;28;20025;-55
2022/12/10 14:41:26;;;;;;;17.42;7.43;;;3.20;99.90;;;;;;10108934;28;20111;-59
2022/12/10 14:46:26;;;;;;;14.50;6.88;;;3.20;99.90;;;;;;10100288;28;20060;-65
2022/12/10 14:51:20;;;;;;;14.45;6.85;;;3.20;99.90;;;;;;10126863;28;20051;-58
2022/12/10 14:56:33;;;;;;;16.85;7.93;;;3.20;99.90;;;;;;10130099;28;20045;-57
2022/12/10 15:01:35;;;;;;;14.18;7.65;;;3.20;99.90;;;;;;10132612;28;20025;-68
2022/12/10 15:06:27;;;;;;;17.42;7.20;;;3.10;99.90;;;;;;10122564;28;20032;-62
2022/12/10 15:11:19;;;;;;;14.80;8.00;;;3.20;99.90;;;;;;10124761;28;20032;-60
2022/12/10 15:16:40;;;;;;;16.88;7.18;;;3.30;99.90;;;;;;10110282;28;20039;-59
2022/12/10 15:21:31;;;;;;;11.15;5.47;;;3.20;99.90;;;;;;10088040;28;20036;-57
2022/12/10 15:26:25;;;;;;;13.68;7.50;;;3.20;99.90;;;;;;10130749;28;20023;-60
2022/12/10 15:31:31;;;;;;;15.15;7.20;;;3.20;99.90;;;;;;10119774;28;20044;-56
2022/12/10 15:36:41;;;;;;;14.52;7.18;;;3.10;99.90;;;;;;10124234;28;20417;-58
2022/12/10 15:41:40;;;;;;;15.20;7.63;;;3.00;99.90;;;;;;10119332;28;20056;-64
2022/12/10 15:46:30;;;;;;;16.45;7.82;;;3.00;99.90;;;;;;10114837;28;20056;-56
2022/12/10 15:51:21;;;;;;;17.00;7.90;;;3.10;99.90;;;;;;10134745;28;20447;-65
2022/12/10 15:56:12;;;;;;;15.48;7.38;;;3.10;99.90;;;;;;10130381;28;20048;-60
2022/12/10 16:01:02;;;;;;;14.73;7.13;;;3.00;99.90;;;;;;10120439;28;20029;-57
2022/12/10 16:05:53;;;;;;;20.42;9.50;;;3.10;99.90;;;;;;10121899;28;20021;-57
2022/12/10 16:10:45;;;;;;;14.68;8.43;;;3.00;99.90;;;;;;10116807;28;20040;-67
2022/12/10 16:15:43;;;;;;;19.25;8.38;;;3.10;99.90;;;;;;10111394;28;20017;-56
2022/12/10 16:20:34;;;;;;;17.92;6.53;;;3.00;99.90;;;;;;10109931;28;20123;-55
2022/12/10 16:25:29;;;;;;;13.65;5.93;;;2.90;99.90;;;;;;10115015;28;20128;-56
2022/12/10 16:30:23;;;;;;;16.90;7.03;;;2.80;99.90;;;;;;10122101;28;20443;-56
2022/12/10 16:35:17;;;;;;;11.32;5.32;;;2.80;99.90;;;;;;10116241;28;20048;-57
2022/12/10 16:40:09;;;;;;;12.18;6.50;;;2.80;99.90;;;;;;10108490;28;20029;-58
2022/12/10 16:45:00;;;;;;;14.05;6.57;;;2.80;99.90;;;;;;10120660;28;20570;-59
2022/12/10 16:49:51;;;;;;;16.40;7.10;;;2.80;99.90;;;;;;10133727;28;20207;-61
2022/12/10 16:54:41;;;;;;;16.02;6.93;;;2.80;99.90;;;;;;10128638;28;20071;-62
2022/12/10 16:59:32;;;;;;;12.85;7.13;;;2.90;99.90;;;;;;10121228;28;20025;-68
2022/12/10 17:04:22;;;;;;;14.98;6.88;;;2.70;99.90;;;;;;10124922;28;20107;-56
2022/12/10 17:09:13;;;;;;;13.98;6.32;;;2.70;99.90;;;;;;10119855;28;20305;-56
2022/12/10 17:14:05;;;;;;;11.43;6.05;;;2.60;99.90;;;;;;10111337;28;20032;-56
2022/12/10 17:18:56;;;;;;;8.88;5.63;;;2.60;99.90;;;;;;10122206;28;20089;-55
2022/12/10 17:23:47;;;;;;;14.63;7.40;;;2.50;99.90;;;;;;10119136;28;20249;-60
2022/12/10 17:28:37;;;;;;;16.83;6.68;;;2.50;99.90;;;;;;10116900;28;20062;-60
2022/12/10 17:33:28;;;;;;;11.90;6.82;;;2.40;99.90;;;;;;10125158;28;20037;-56
2022/12/10 17:38:22;;;;;;;12.15;5.35;;;2.30;99.90;;;;;;10112716;28;20031;-59
2022/12/10 17:43:12;;;;;;;11.65;5.65;;;2.30;99.90;;;;;;10125907;28;20016;-58
2022/12/10 17:48:05;;;;;;;19.27;8.90;;;2.30;99.90;;;;;;10142094;28;20025;-56
2022/12/10 17:52:59;;;;;;;15.18;7.68;;;2.30;99.90;;;;;;10134704;28;20039;-60
2022/12/10 17:57:50;;;;;;;14.15;6.28;;;2.20;99.90;;;;;;10114133;28;20059;-55
2022/12/10 18:02:40;;;;;;;13.55;6.85;;;2.20;99.90;;;;;;10134918;28;20486;-59
2022/12/10 18:07:31;;;;;;;20.13;6.68;;;2.20;99.90;;;;;;10116510;28;20402;-59
2022/12/10 18:12:22;;;;;;;16.25;8.60;;;2.10;99.90;;;;;;10123732;28;20521;-58
2022/12/10 18:17:14;;;;;;;15.52;7.07;;;2.00;99.90;;;;;;10116894;28;20332;-57
2022/12/10 18:22:05;;;;;;;18.63;6.70;;;2.00;99.90;;;;;;10140475;28;20179;-56
2022/12/10 18:26:56;;;;;;;17.30;7.05;;;2.10;99.90;;;;;;10130832;28;20047;-55
2022/12/10 18:31:47;;;;;;;16.15;6.93;;;2.20;99.90;;;;;;10126672;28;20564;-61
2022/12/10 18:36:40;;;;;;;16.00;6.55;;;2.20;99.90;;;;;;10116948;28;20029;-57
2022/12/10 18:41:34;;;;;;;13.20;6.28;;;2.20;99.90;;;;;;10103569;28;20039;-62
2022/12/10 18:46:27;;;;;;;19.42;7.57;;;2.10;99.90;;;;;;10139034;28;20032;-60
2022/12/10 18:51:18;;;;;;;21.88;8.55;;;2.20;99.90;;;;;;10138962;28;20044;-61
2022/12/10 18:56:14;;;;;;;20.75;7.38;;;2.00;99.90;;;;;;10132286;28;20043;-57
2022/12/10 19:01:06;;;;;;;12.70;6.35;;;2.10;99.90;;;;;;10128095;28;20036;-57
2022/12/10 19:05:57;;;;;;;18.25;7.63;;;2.10;99.90;;;;;;10111260;28;20490;-64
2022/12/10 19:10:48;;;;;;;23.30;9.85;;;2.10;99.90;;;;;;10125134;28;20032;-56
2022/12/10 19:15:38;;;;;;;21.20;8.35;;;2.10;99.90;;;;;;10113160;28;20100;-59
2022/12/10 19:20:30;;;;;;;15.15;7.03;;;2.10;99.90;;;;;;10110679;28;20032;-60
2022/12/10 19:25:21;;;;;;;15.85;7.30;;;2.10;99.90;;;;;;10137484;28;20032;-57
2022/12/10 19:30:18;;;;;;;23.98;8.68;;;2.20;99.90;;;;;;10138519;28;20028;-57
2022/12/10 19:35:14;;;;;;;16.55;7.20;;;2.30;99.90;;;;;;10131641;28;20029;-59
2022/12/10 19:40:06;;;;;;;19.30;8.57;;;2.40;99.90;;;;;;10106512;28;20037;-66
2022/12/10 19:44:57;;;;;;;18.10;9.75;;;2.40;99.90;;;;;;10101612;28;20650;-58
2022/12/10 19:49:48;;;;;;;18.63;8.38;;;2.40;99.90;;;;;;10138826;28;20059;-71
2022/12/10 19:54:39;;;;;;;14.98;7.15;;;2.30;99.90;;;;;;10138663;28;20071;-65
2022/12/10 19:59:30;;;;;;;12.48;6.88;;;2.30;99.90;;;;;;10128063;28;20075;-64
2022/12/10 20:04:20;;;;;;;14.95;6.72;;;2.30;99.90;;;;;;10157412;28;20028;-57
2022/12/10 20:09:25;;;;;;;17.13;7.13;;;2.40;99.90;;;;;;10153320;28;20020;-57
2022/12/10 20:14:17;;;;;;;16.33;7.18;;;2.40;99.90;;;;;;10096772;28;20505;-73
2022/12/10 20:19:12;;;;;;;16.63;6.80;;;2.40;99.90;;;;;;10147620;28;20056;-72
2022/12/10 20:24:08;;;;;;;18.20;8.45;;;2.40;99.90;;;;;;10145272;28;20504;-70
2022/12/10 20:28:59;;;;;;;15.03;7.60;;;2.30;99.90;;;;;;10121414;28;20099;-61
2022/12/10 20:33:50;;;;;;;16.23;7.22;;;2.40;99.90;;;;;;10116830;28;20072;-59
2022/12/10 20:38:41;;;;;;;14.85;6.88;;;2.30;99.90;;;;;;10137694;28;20024;-66
2022/12/10 20:43:31;;;;;;;14.30;7.18;;;2.20;99.90;;;;;;10136879;28;20398;-65
2022/12/10 20:48:23;;;;;;;16.30;7.15;;;2.10;99.90;;;;;;10119789;28;20455;-61
2022/12/10 20:53:14;;;;;;;18.10;7.45;;;2.10;99.90;;;;;;10112369;28;20041;-58
2022/12/10 20:58:08;;;;;;;18.05;7.80;;;2.10;99.90;;;;;;10110583;28;20041;-66
2022/12/10 21:02:59;;;;;;;16.05;7.45;;;2.10;99.90;;;;;;10108609;28;20036;-58
2022/12/10 21:07:50;;;;;;;18.85;7.53;;;2.00;99.90;;;;;;10147120;28;20021;-65
2022/12/10 21:12:40;;;;;;;15.48;6.53;;;2.00;99.90;;;;;;10137755;28;20073;-69
2022/12/10 21:17:31;;;;;;;12.32;6.38;;;2.00;99.90;;;;;;10129392;28;20020;-72
2022/12/10 21:22:22;;;;;;;12.77;6.78;;;2.00;99.90;;;;;;10139360;28;20521;-77
2022/12/10 21:27:13;;;;;;;15.63;7.07;;;2.00;99.90;;;;;;10136962;28;20032;-71
2022/12/10 21:32:04;;;;;;;14.15;7.18;;;2.00;99.90;;;;;;10143685;28;20029;-75
2022/12/10 21:36:55;;;;;;;17.58;7.80;;;1.90;99.90;;;;;;10109112;28;20024;-70
2022/12/10 21:46:55;;;;;;;14.80;6.35;;;1.70;99.90;;;;;;10140517;28;20501;-70
2022/12/10 21:51:45;;;;;;;19.10;7.65;;;1.60;99.90;;;;;;10133376;28;20094;-56
2022/12/10 21:56:36;;;;;;;18.00;8.50;;;1.60;99.90;;;;;;10129727;28;20051;-75
2022/12/10 22:01:27;;;;;;;18.98;8.95;;;1.60;99.90;;;;;;10152677;28;20483;-60
2022/12/10 22:06:24;;;;;;;18.60;8.82;;;1.60;99.90;;;;;;10117340;28;20021;-59
2022/12/10 22:11:15;;;;;;;19.35;7.80;;;1.40;99.90;;;;;;10117132;28;20078;-64
2022/12/10 22:16:08;;;;;;;18.98;8.27;;;1.40;99.90;;;;;;10114170;28;20017;-67
2022/12/10 22:21:00;;;;;;;18.70;8.80;;;1.40;99.90;;;;;;10137810;28;20029;-67
2022/12/10 22:25:51;;;;;;;20.40;9.55;;;1.40;99.90;;;;;;10123736;28;20021;-65
2022/12/10 22:30:41;;;;;;;21.15;8.43;;;1.30;99.90;;;;;;10136440;28;20040;-62
2022/12/10 22:35:32;;;;;;;22.85;8.43;;;1.40;99.90;;;;;;10105960;28;20033;-70
2022/12/10 22:40:23;;;;;;;19.52;7.22;;;1.30;99.90;;;;;;10109630;28;20039;-74
2022/12/10 22:45:14;;;;;;;17.13;8.10;;;1.30;99.90;;;;;;10118209;28;20037;-71
2022/12/10 22:50:05;;;;;;;17.23;6.80;;;1.30;99.90;;;;;;10116075;28;20025;-75
2022/12/10 22:54:56;;;;;;;17.45;7.97;;;1.30;99.90;;;;;;10117839;28;20044;-74
2022/12/10 22:59:47;;;;;;;16.08;7.47;;;1.30;99.90;;;;;;10105015;28;20052;-69
2022/12/10 23:04:38;;;;;;;14.90;6.35;;;1.30;99.90;;;;;;10127072;28;20487;-61
2022/12/10 23:09:28;;;;;;;15.07;6.80;;;1.30;99.90;;;;;;10133616;28;20031;-60
2022/12/10 23:14:20;;;;;;;17.83;6.90;;;1.30;99.90;;;;;;10107815;28;20039;-57
2022/12/10 23:19:10;;;;;;;15.68;7.05;;;1.30;99.90;;;;;;10116956;28;20116;-61
2022/12/10 23:24:01;;;;;;;16.08;6.22;;;1.40;99.90;;;;;;10120039;28;20311;-60
2022/12/10 23:28:52;;;;;;;11.45;6.55;;;1.40;99.90;;;;;;10120811;28;20419;-59
2022/12/10 23:33:42;;;;;;;18.77;6.97;;;1.30;99.90;;;;;;10116834;28;20032;-59
2022/12/10 23:38:33;;;;;;;16.42;6.38;;;1.30;99.90;;;;;;10113178;28;20482;-59
2022/12/10 23:43:24;;;;;;;24.63;9.85;;;1.30;99.90;;;;;;10100656;28;20025;-59
2022/12/10 23:48:15;;;;;;;16.77;8.25;;;1.30;99.90;;;;;;10112881;28;20029;-58
2022/12/10 23:53:06;;;;;;;16.23;7.32;;;1.30;99.90;;;;;;10106072;28;20033;-58
2022/12/10 23:57:56;;;;;;;25.23;10.55;;;1.30;99.90;;;;;;10102665;28;20289;-57
